createdAt,value
2018-06-12T00:00:13.104Z,69.70
2018-06-12T00:00:45.836Z,69.80
2018-06-12T00:01:18.584Z,69.80
2018-06-12T00:01:51.328Z,69.80
2018-06-12T00:02:24.778Z,69.70
2018-06-12T00:02:57.986Z,69.60
2018-06-12T00:03:31.466Z,69.40
2018-06-12T00:04:04.736Z,69.50
2018-06-12T00:04:37.496Z,69.60
2018-06-12T00:05:10.228Z,69.70
2018-06-12T00:05:42.963Z,69.70
2018-06-12T00:06:15.690Z,69.90
2018-06-12T00:06:48.437Z,69.80
2018-06-12T00:07:21.180Z,69.70
2018-06-12T00:07:54.151Z,69.90
2018-06-12T00:08:27.869Z,70.40
2018-06-12T00:09:00.768Z,69.90
2018-06-12T00:09:33.544Z,70.00
2018-06-12T00:10:06.280Z,70.10
2018-06-12T00:10:39.028Z,70.00
2018-06-12T00:11:11.755Z,69.90
2018-06-12T00:11:44.478Z,69.90
2018-06-12T00:12:17.208Z,70.00
2018-06-12T00:12:49.951Z,69.90
2018-06-12T00:13:23.104Z,70.00
2018-06-12T00:13:56.352Z,70.10
2018-06-12T00:14:29.520Z,70.00
2018-06-12T00:15:02.709Z,70.20
2018-06-12T00:15:35.656Z,70.10
2018-06-12T00:16:08.408Z,70.20
2018-06-12T00:16:41.144Z,70.30
2018-06-12T00:17:13.904Z,70.30
2018-06-12T00:17:46.624Z,70.20
2018-06-12T00:18:19.340Z,70.30
2018-06-12T00:18:52.161Z,70.20
2018-06-12T00:19:25.616Z,70.20
2018-06-12T00:19:58.547Z,70.30
2018-06-12T00:20:31.460Z,70.20
2018-06-12T00:21:04.272Z,70.10
2018-06-12T00:21:37.020Z,70.10
2018-06-12T00:22:09.744Z,70.10
2018-06-12T00:22:42.468Z,70.10
2018-06-12T00:23:15.400Z,69.80
2018-06-12T00:24:20.776Z,70.00
2018-06-12T00:24:54.023Z,70.10
2018-06-12T00:25:27.382Z,70.10
2018-06-12T00:26:00.327Z,70.20
2018-06-12T00:26:33.518Z,69.90
2018-06-12T00:27:06.256Z,70.20
2018-06-12T00:27:38.983Z,70.10
2018-06-12T00:28:11.724Z,70.00
2018-06-12T00:28:44.468Z,70.00
2018-06-12T00:29:17.184Z,69.90
2018-06-12T00:29:49.928Z,70.00
2018-06-12T00:30:23.321Z,70.20
2018-06-12T00:30:56.720Z,70.00
2018-06-12T00:31:29.876Z,70.80
2018-06-12T00:32:02.932Z,70.00
2018-06-12T00:32:35.648Z,69.90
2018-06-12T00:33:08.396Z,70.30
2018-06-12T00:33:41.148Z,70.20
2018-06-12T00:34:13.876Z,70.10
2018-06-12T00:34:46.600Z,70.30
2018-06-12T00:35:19.355Z,70.40
2018-06-12T00:35:52.496Z,70.40
2018-06-12T00:36:25.832Z,70.50
2018-06-12T00:36:58.721Z,71.20
2018-06-12T00:37:31.662Z,70.50
2018-06-12T00:38:04.687Z,70.50
2018-06-12T00:38:37.416Z,70.60
2018-06-12T00:39:10.137Z,70.50
2018-06-12T00:39:42.873Z,70.60
2018-06-12T00:40:15.600Z,70.50
2018-06-12T00:40:48.320Z,70.60
2018-06-12T00:41:21.100Z,70.50
2018-06-12T00:41:54.032Z,70.60
2018-06-12T00:42:27.212Z,70.60
2018-06-12T00:43:00.259Z,70.50
2018-06-12T00:43:33.010Z,70.60
2018-06-12T00:44:05.726Z,70.70
2018-06-12T00:44:38.387Z,70.60
2018-06-12T00:45:11.077Z,70.70
2018-06-12T00:45:43.758Z,71.50
2018-06-12T00:46:16.414Z,70.90
2018-06-12T00:46:49.098Z,70.90
2018-06-12T00:47:21.771Z,70.90
2018-06-12T00:47:55.253Z,70.80
2018-06-12T00:48:28.111Z,70.90
2018-06-12T00:49:01.144Z,71.00
2018-06-12T00:49:33.918Z,71.00
2018-06-12T00:50:06.611Z,70.90
2018-06-12T00:50:39.290Z,71.00
2018-06-12T00:51:11.954Z,71.00
2018-06-12T00:51:44.642Z,71.00
2018-06-12T00:52:17.334Z,71.20
2018-06-12T00:52:50.007Z,71.10
2018-06-12T00:53:22.853Z,71.50
2018-06-12T00:53:55.919Z,70.90
2018-06-12T00:54:28.795Z,71.00
2018-06-12T00:55:01.699Z,71.00
2018-06-12T00:55:34.410Z,71.40
2018-06-12T00:56:07.139Z,70.80
2018-06-12T00:56:51.134Z,70.90
2018-06-12T00:57:24.510Z,71.00
2018-06-12T00:57:58.290Z,71.00
2018-06-12T00:58:31.160Z,70.90
2018-06-12T00:59:03.895Z,70.70
2018-06-12T00:59:36.590Z,70.60
2018-06-12T01:00:09.274Z,70.70
2018-06-12T01:00:41.995Z,71.00
2018-06-12T01:01:14.651Z,70.90
2018-06-12T01:01:47.324Z,71.00
2018-06-12T01:02:19.991Z,71.00
2018-06-12T01:02:53.133Z,71.20
2018-06-12T01:03:26.069Z,71.20
2018-06-12T01:03:59.160Z,71.10
2018-06-12T01:04:32.057Z,71.50
2018-06-12T01:05:04.791Z,71.00
2018-06-12T01:05:37.479Z,70.80
2018-06-12T01:06:10.131Z,70.90
2018-06-12T01:06:42.791Z,70.90
2018-06-12T01:07:15.447Z,70.70
2018-06-12T01:07:48.066Z,70.80
2018-06-12T01:08:20.742Z,70.80
2018-06-12T01:08:53.911Z,70.90
2018-06-12T01:09:26.754Z,70.90
2018-06-12T01:09:59.653Z,70.80
2018-06-12T01:10:32.582Z,70.80
2018-06-12T01:11:05.350Z,70.90
2018-06-12T01:11:38.022Z,70.80
2018-06-12T01:12:10.678Z,70.90
2018-06-12T01:12:43.326Z,70.90
2018-06-12T01:13:16.023Z,70.90
2018-06-12T01:13:48.755Z,71.00
2018-06-12T01:14:21.414Z,71.00
2018-06-12T01:14:54.465Z,70.90
2018-06-12T01:15:27.714Z,70.70
2018-06-12T01:16:00.798Z,70.40
2018-06-12T01:16:33.568Z,70.50
2018-06-12T01:17:06.294Z,70.60
2018-06-12T01:17:38.962Z,70.40
2018-06-12T01:18:11.627Z,70.40
2018-06-12T01:18:44.322Z,70.20
2018-06-12T01:19:17.034Z,70.00
2018-06-12T01:19:49.730Z,70.10
2018-06-12T01:20:22.520Z,70.80
2018-06-12T01:20:55.706Z,70.10
2018-06-12T01:21:28.538Z,69.90
2018-06-12T01:22:01.441Z,69.90
2018-06-12T01:22:34.174Z,69.80
2018-06-12T01:23:06.855Z,69.80
2018-06-12T01:23:39.502Z,69.60
2018-06-12T01:24:12.170Z,69.50
2018-06-12T01:24:44.854Z,69.40
2018-06-12T01:25:17.506Z,69.60
2018-06-12T01:25:50.182Z,69.80
2018-06-12T01:26:23.036Z,69.80
2018-06-12T01:26:56.406Z,69.70
2018-06-12T01:27:29.325Z,69.40
2018-06-12T01:28:02.426Z,69.30
2018-06-12T01:28:35.119Z,69.40
2018-06-12T01:29:07.785Z,69.50
2018-06-12T01:29:40.467Z,69.60
2018-06-12T01:30:13.162Z,69.50
2018-06-12T01:30:45.814Z,69.80
2018-06-12T01:31:18.465Z,69.90
2018-06-12T01:31:51.118Z,69.80
2018-06-12T01:32:24.447Z,69.90
2018-06-12T01:32:57.375Z,70.00
2018-06-12T01:33:30.255Z,70.00
2018-06-12T01:34:35.544Z,70.10
2018-06-12T01:35:08.239Z,70.00
2018-06-12T01:35:40.918Z,70.10
2018-06-12T01:36:13.606Z,70.30
2018-06-12T01:36:46.262Z,70.00
2018-06-12T01:37:18.926Z,70.10
2018-06-12T01:37:51.641Z,70.30
2018-06-12T01:38:24.968Z,70.30
2018-06-12T01:38:57.818Z,70.30
2018-06-12T01:39:30.652Z,70.20
2018-06-12T01:40:03.597Z,70.10
2018-06-12T01:40:36.255Z,70.10
2018-06-12T01:41:08.966Z,70.70
2018-06-12T01:41:41.649Z,70.00
2018-06-12T01:42:14.313Z,69.90
2018-06-12T01:42:46.968Z,70.00
2018-06-12T01:43:19.618Z,70.00
2018-06-12T01:43:52.372Z,70.50
2018-06-12T01:44:25.424Z,70.00
2018-06-12T01:44:58.114Z,70.30
2018-06-12T01:45:30.927Z,70.30
2018-06-12T01:46:03.833Z,70.20
2018-06-12T01:46:36.588Z,70.00
2018-06-12T01:47:09.263Z,70.10
2018-06-12T01:47:41.934Z,69.90
2018-06-12T01:48:14.588Z,69.90
2018-06-12T01:48:47.243Z,70.10
2018-06-12T01:49:19.908Z,70.00
2018-06-12T01:49:52.615Z,70.00
2018-06-12T01:50:25.628Z,70.20
2018-06-12T01:50:58.630Z,70.40
2018-06-12T01:51:31.809Z,70.50
2018-06-12T01:52:04.649Z,70.60
2018-06-12T01:52:37.362Z,70.70
2018-06-12T01:53:10.076Z,70.70
2018-06-12T01:53:42.719Z,71.30
2018-06-12T01:54:15.378Z,70.70
2018-06-12T01:54:48.045Z,70.60
2018-06-12T01:55:20.710Z,71.20
2018-06-12T01:55:53.526Z,71.00
2018-06-12T01:56:26.714Z,71.00
2018-06-12T01:56:59.539Z,70.80
2018-06-12T01:57:32.380Z,71.10
2018-06-12T01:58:05.279Z,71.80
2018-06-12T01:58:37.982Z,71.10
2018-06-12T01:59:10.630Z,71.20
2018-06-12T01:59:43.294Z,71.30
2018-06-12T02:00:15.938Z,71.10
2018-06-12T02:00:48.573Z,71.10
2018-06-12T02:01:21.249Z,71.80
2018-06-12T02:01:54.338Z,71.30
2018-06-12T02:02:27.226Z,71.20
2018-06-12T02:03:00.191Z,71.20
2018-06-12T02:03:33.190Z,71.40
2018-06-12T02:04:05.883Z,71.30
2018-06-12T02:04:38.545Z,71.30
2018-06-12T02:05:11.218Z,71.20
2018-06-12T02:05:43.870Z,71.10
2018-06-12T02:06:16.523Z,71.20
2018-06-12T02:06:49.186Z,71.30
2018-06-12T02:07:21.860Z,71.30
2018-06-12T02:07:54.902Z,71.30
2018-06-12T02:08:27.890Z,71.20
2018-06-12T02:09:00.885Z,70.90
2018-06-12T02:09:33.718Z,70.90
2018-06-12T02:10:06.466Z,70.90
2018-06-12T02:10:39.138Z,71.00
2018-06-12T02:11:11.781Z,70.90
2018-06-12T02:11:44.473Z,70.90
2018-06-12T02:12:17.150Z,70.90
2018-06-12T02:12:49.811Z,71.00
2018-06-12T02:13:22.554Z,71.20
2018-06-12T02:13:55.821Z,71.20
2018-06-12T02:14:28.858Z,71.20
2018-06-12T02:15:01.699Z,71.10
2018-06-12T02:15:34.491Z,70.90
2018-06-12T02:16:07.195Z,70.60
2018-06-12T02:16:39.858Z,70.80
2018-06-12T02:17:12.519Z,70.80
2018-06-12T02:17:45.207Z,70.70
2018-06-12T02:18:17.898Z,70.80
2018-06-12T02:18:50.566Z,70.80
2018-06-12T02:19:23.392Z,70.60
2018-06-12T02:19:56.338Z,70.50
2018-06-12T02:20:29.411Z,70.70
2018-06-12T02:21:02.203Z,70.80
2018-06-12T02:21:34.898Z,70.70
2018-06-12T02:22:07.555Z,70.80
2018-06-12T02:22:40.230Z,70.90
2018-06-12T02:23:12.917Z,71.10
2018-06-12T02:23:45.598Z,70.80
2018-06-12T02:24:18.237Z,70.70
2018-06-12T02:24:50.934Z,71.10
2018-06-12T02:25:24.145Z,71.20
2018-06-12T02:25:57.552Z,70.90
2018-06-12T02:26:30.377Z,70.80
2018-06-12T02:27:03.206Z,70.60
2018-06-12T02:27:35.907Z,70.90
2018-06-12T02:28:08.558Z,70.90
2018-06-12T02:28:41.215Z,71.00
2018-06-12T02:29:13.882Z,71.10
2018-06-12T02:29:46.537Z,71.20
2018-06-12T02:30:19.227Z,71.10
2018-06-12T02:30:51.862Z,70.90
2018-06-12T02:31:25.232Z,70.90
2018-06-12T02:31:58.138Z,70.80
2018-06-12T02:32:31.086Z,70.80
2018-06-12T02:33:03.882Z,70.80
2018-06-12T02:33:36.571Z,70.80
2018-06-12T02:34:09.218Z,70.80
2018-06-12T02:34:41.898Z,71.00
2018-06-12T02:35:14.579Z,71.00
2018-06-12T02:35:47.267Z,71.00
2018-06-12T02:36:19.947Z,71.00
2018-06-12T02:36:52.775Z,71.00
2018-06-12T02:37:25.879Z,70.70
2018-06-12T02:37:58.754Z,70.60
2018-06-12T02:38:31.573Z,70.60
2018-06-12T02:39:06.538Z,70.60
2018-06-12T02:39:39.203Z,70.60
2018-06-12T02:40:11.895Z,70.50
2018-06-12T02:40:44.535Z,70.50
2018-06-12T02:41:17.222Z,70.50
2018-06-12T02:41:49.897Z,70.60
2018-06-12T02:42:22.704Z,70.50
2018-06-12T02:42:56.002Z,70.50
2018-06-12T02:43:28.859Z,70.50
2018-06-12T02:44:01.980Z,70.50
2018-06-12T02:44:34.928Z,70.50
2018-06-12T02:45:07.578Z,70.70
2018-06-12T02:45:40.270Z,70.80
2018-06-12T02:46:12.933Z,70.90
2018-06-12T02:46:45.631Z,71.00
2018-06-12T02:47:18.315Z,71.10
2018-06-12T02:47:50.971Z,71.70
2018-06-12T02:48:24.218Z,71.10
2018-06-12T02:48:57.194Z,71.20
2018-06-12T02:49:30.032Z,71.40
2018-06-12T02:50:03.682Z,71.80
2018-06-12T02:50:36.379Z,71.90
2018-06-12T02:51:09.074Z,71.90
2018-06-12T02:51:41.727Z,72.00
2018-06-12T02:52:14.423Z,71.80
2018-06-12T02:52:47.116Z,71.40
2018-06-12T02:53:19.783Z,71.30
2018-06-12T02:53:52.537Z,71.20
2018-06-12T02:54:26.550Z,71.10
2018-06-12T02:55:32.174Z,70.90
2018-06-12T02:56:05.839Z,70.90
2018-06-12T02:56:38.594Z,71.30
2018-06-12T02:57:11.256Z,70.70
2018-06-12T02:57:43.955Z,70.70
2018-06-12T02:58:16.635Z,70.80
2018-06-12T02:58:49.303Z,71.00
2018-06-12T02:59:21.966Z,71.10
2018-06-12T02:59:54.885Z,71.40
2018-06-12T03:00:28.055Z,71.40
2018-06-12T03:01:00.925Z,71.40
2018-06-12T03:01:33.765Z,71.30
2018-06-12T03:02:06.430Z,71.40
2018-06-12T03:02:39.099Z,71.50
2018-06-12T03:03:11.787Z,71.40
2018-06-12T03:03:44.438Z,71.40
2018-06-12T03:04:17.118Z,71.50
2018-06-12T03:04:49.784Z,71.60
2018-06-12T03:05:22.658Z,71.40
2018-06-12T03:05:55.660Z,71.40
2018-06-12T03:06:28.881Z,71.40
2018-06-12T03:07:01.721Z,71.50
2018-06-12T03:07:34.486Z,71.80
2018-06-12T03:08:07.179Z,71.70
2018-06-12T03:08:39.858Z,71.70
2018-06-12T03:09:12.518Z,72.10
2018-06-12T03:09:45.171Z,71.70
2018-06-12T03:10:17.854Z,72.20
2018-06-12T03:10:50.564Z,71.50
2018-06-12T03:11:23.933Z,71.10
2018-06-12T03:11:56.878Z,70.70
2018-06-12T03:13:02.922Z,70.50
2018-06-12T03:13:35.603Z,70.60
2018-06-12T03:14:08.311Z,70.50
2018-06-12T03:14:40.991Z,70.30
2018-06-12T03:15:13.679Z,70.30
2018-06-12T03:15:46.374Z,70.40
2018-06-12T03:16:19.018Z,70.10
2018-06-12T03:16:51.682Z,70.00
2018-06-12T03:17:24.576Z,69.50
2018-06-12T03:17:57.451Z,69.10
2018-06-12T03:18:30.291Z,68.90
2018-06-12T03:19:03.570Z,69.00
2018-06-12T03:19:36.387Z,69.30
2018-06-12T03:20:09.352Z,69.50
2018-06-12T03:20:43.898Z,69.60
2018-06-12T03:21:16.570Z,69.50
2018-06-12T03:21:49.254Z,69.60
2018-06-12T03:22:21.919Z,69.60
2018-06-12T03:22:54.919Z,69.40
2018-06-12T03:23:27.838Z,69.10
2018-06-12T03:24:00.946Z,69.10
2018-06-12T03:24:33.740Z,69.20
2018-06-12T03:25:06.495Z,69.10
2018-06-12T03:25:39.230Z,69.20
2018-06-12T03:26:11.906Z,69.50
2018-06-12T03:26:44.578Z,69.70
2018-06-12T03:27:17.236Z,69.70
2018-06-12T03:27:49.906Z,69.80
2018-06-12T03:28:22.895Z,69.90
2018-06-12T03:28:56.189Z,70.40
2018-06-12T03:29:29.043Z,70.40
2018-06-12T03:30:01.902Z,70.20
2018-06-12T03:31:07.299Z,70.20
2018-06-12T03:31:39.979Z,70.50
2018-06-12T03:32:12.656Z,70.90
2018-06-12T03:32:45.327Z,70.70
2018-06-12T03:33:17.978Z,70.80
2018-06-12T03:33:50.643Z,71.20
2018-06-12T03:34:23.757Z,71.20
2018-06-12T03:34:57.639Z,70.90
2018-06-12T03:35:30.677Z,70.60
2018-06-12T03:36:03.611Z,70.40
2018-06-12T03:36:36.349Z,70.20
2018-06-12T03:37:09.060Z,70.10
2018-06-12T03:37:41.762Z,71.00
2018-06-12T03:38:14.414Z,70.80
2018-06-12T03:38:47.074Z,70.20
2018-06-12T03:39:19.753Z,70.10
2018-06-12T03:39:52.414Z,70.50
2018-06-12T03:40:25.651Z,70.60
2018-06-12T03:40:58.887Z,71.10
2018-06-12T03:41:31.782Z,70.40
2018-06-12T03:42:04.619Z,69.90
2018-06-12T03:42:37.319Z,69.60
2018-06-12T03:43:09.995Z,69.70
2018-06-12T03:43:42.661Z,69.60
2018-06-12T03:44:15.322Z,69.60
2018-06-12T03:44:47.979Z,69.70
2018-06-12T03:45:20.641Z,69.70
2018-06-12T03:45:53.682Z,69.90
2018-06-12T03:46:26.865Z,69.90
2018-06-12T03:46:59.960Z,70.00
2018-06-12T03:47:32.853Z,70.00
2018-06-12T03:48:05.549Z,69.90
2018-06-12T03:48:38.222Z,69.90
2018-06-12T03:49:10.878Z,70.00
2018-06-12T03:49:43.519Z,70.30
2018-06-12T03:50:16.195Z,70.40
2018-06-12T03:50:48.847Z,70.50
2018-06-12T03:51:21.518Z,70.90
2018-06-12T03:51:54.920Z,70.20
2018-06-12T03:52:27.878Z,70.30
2018-06-12T03:53:00.731Z,70.60
2018-06-12T03:53:33.925Z,70.70
2018-06-12T03:54:06.648Z,70.50
2018-06-12T03:54:39.316Z,70.20
2018-06-12T03:55:11.980Z,70.00
2018-06-12T03:55:44.634Z,70.00
2018-06-12T03:56:17.318Z,70.10
2018-06-12T03:56:50.009Z,70.50
2018-06-12T03:57:22.710Z,70.90
2018-06-12T03:57:56.454Z,71.10
2018-06-12T03:58:29.258Z,70.90
2018-06-12T03:59:02.059Z,70.70
2018-06-12T03:59:34.879Z,70.70
2018-06-12T04:00:07.557Z,70.50
2018-06-12T04:00:40.250Z,70.20
2018-06-12T04:01:12.898Z,70.20
2018-06-12T04:01:45.567Z,70.80
2018-06-12T04:02:18.262Z,70.70
2018-06-12T04:02:50.946Z,70.40
2018-06-12T04:03:24.206Z,70.00
2018-06-12T04:03:57.201Z,70.00
2018-06-12T04:04:30.314Z,69.90
2018-06-12T04:05:03.490Z,69.60
2018-06-12T04:05:36.228Z,69.60
2018-06-12T04:06:08.895Z,69.30
2018-06-12T04:06:41.586Z,69.00
2018-06-12T04:07:14.315Z,68.70
2018-06-12T04:08:19.563Z,68.50
2018-06-12T04:08:52.195Z,68.50
2018-06-12T04:09:25.466Z,68.00
2018-06-12T04:09:58.680Z,67.50
2018-06-12T04:10:31.993Z,67.60
2018-06-12T04:11:04.743Z,67.30
2018-06-12T04:11:37.415Z,66.90
2018-06-12T04:12:10.070Z,67.50
2018-06-12T04:12:42.722Z,67.10
2018-06-12T04:13:15.448Z,67.00
2018-06-12T04:13:48.134Z,67.10
2018-06-12T04:14:20.823Z,67.80
2018-06-12T04:14:53.596Z,67.60
2018-06-12T04:15:26.589Z,67.50
2018-06-12T04:15:59.426Z,67.50
2018-06-12T04:16:35.397Z,67.60
2018-06-12T04:17:08.073Z,67.70
2018-06-12T04:17:40.742Z,67.80
2018-06-12T04:18:13.451Z,68.10
2018-06-12T04:18:46.142Z,68.00
2018-06-12T04:19:18.807Z,68.10
2018-06-12T04:19:51.511Z,68.00
2018-06-12T04:20:24.375Z,68.10
2018-06-12T04:20:57.523Z,68.00
2018-06-12T04:21:30.372Z,68.00
2018-06-12T04:22:03.439Z,68.20
2018-06-12T04:22:36.122Z,67.80
2018-06-12T04:23:08.783Z,67.60
2018-06-12T04:23:41.465Z,67.80
2018-06-12T04:24:14.182Z,67.90
2018-06-12T04:24:46.899Z,67.50
2018-06-12T04:25:19.603Z,67.70
2018-06-12T04:25:52.271Z,67.60
2018-06-12T04:26:25.167Z,67.50
2018-06-12T04:26:58.223Z,67.50
2018-06-12T04:27:31.142Z,67.60
2018-06-12T04:28:03.954Z,67.60
2018-06-12T04:28:36.626Z,67.50
2018-06-12T04:29:09.298Z,67.30
2018-06-12T04:29:41.954Z,67.50
2018-06-12T04:30:14.631Z,67.40
2018-06-12T04:30:47.308Z,66.80
2018-06-12T04:31:19.991Z,66.00
2018-06-12T04:31:52.750Z,66.10
2018-06-12T04:32:25.761Z,65.70
2018-06-12T04:32:58.614Z,65.60
2018-06-12T04:33:31.458Z,65.50
2018-06-12T04:34:04.226Z,65.30
2018-06-12T04:34:36.910Z,64.90
2018-06-12T04:35:09.583Z,65.20
2018-06-12T04:35:42.238Z,65.20
2018-06-12T04:36:14.930Z,65.10
2018-06-12T04:36:47.635Z,65.10
2018-06-12T04:37:20.318Z,65.30
2018-06-12T04:37:52.975Z,65.40
2018-06-12T04:38:26.225Z,65.30
2018-06-12T04:38:59.193Z,65.20
2018-06-12T04:39:32.167Z,65.90
2018-06-12T04:40:05.042Z,64.20
2018-06-12T04:40:37.734Z,63.60
2018-06-12T04:41:10.396Z,63.40
2018-06-12T04:41:43.070Z,63.20
2018-06-12T04:42:15.723Z,63.00
2018-06-12T04:42:48.366Z,62.60
2018-06-12T04:43:21.052Z,62.10
2018-06-12T04:43:53.863Z,62.30
2018-06-12T04:44:27.926Z,62.10
2018-06-12T04:45:00.759Z,62.20
2018-06-12T04:45:33.628Z,62.50
2018-06-12T04:46:06.395Z,62.30
2018-06-12T04:46:39.071Z,62.30
2018-06-12T04:47:11.794Z,62.50
2018-06-12T04:47:44.462Z,62.50
2018-06-12T04:48:17.138Z,62.50
2018-06-12T04:48:49.791Z,62.60
2018-06-12T04:49:22.466Z,63.20
2018-06-12T04:49:55.817Z,62.70
2018-06-12T04:50:28.700Z,62.90
2018-06-12T04:51:01.546Z,63.10
2018-06-12T04:51:34.410Z,63.30
2018-06-12T04:52:07.094Z,63.40
2018-06-12T04:52:39.788Z,63.20
2018-06-12T04:53:12.435Z,63.10
2018-06-12T04:53:45.094Z,63.30
2018-06-12T04:54:17.759Z,63.40
2018-06-12T04:54:50.446Z,63.50
2018-06-12T04:55:23.258Z,63.50
2018-06-12T04:55:55.994Z,63.40
2018-06-12T04:56:28.974Z,63.60
2018-06-12T04:57:01.828Z,63.60
2018-06-12T04:57:34.806Z,63.60
2018-06-12T04:58:07.567Z,63.60
2018-06-12T04:58:40.234Z,63.60
2018-06-12T04:59:12.902Z,63.90
2018-06-12T05:00:18.186Z,63.80
2018-06-12T05:00:50.827Z,63.70
2018-06-12T05:01:33.152Z,63.90
2018-06-12T05:02:08.336Z,63.90
2018-06-12T05:02:41.384Z,64.20
2018-06-12T05:03:14.299Z,64.50
2018-06-12T05:03:47.050Z,64.70
2018-06-12T05:04:19.702Z,64.30
2018-06-12T05:04:52.354Z,64.10
2018-06-12T05:05:25.023Z,64.00
2018-06-12T05:05:57.695Z,64.30
2018-06-12T05:06:30.386Z,63.50
2018-06-12T05:07:03.074Z,63.30
2018-06-12T05:07:36.158Z,63.10
2018-06-12T05:08:09.234Z,62.90
2018-06-12T05:08:42.053Z,62.60
2018-06-12T05:09:14.995Z,63.20
2018-06-12T05:09:47.690Z,62.70
2018-06-12T05:10:20.378Z,62.80
2018-06-12T05:10:53.039Z,62.40
2018-06-12T05:11:58.270Z,62.70
2018-06-12T05:12:30.946Z,62.80
2018-06-12T05:13:03.638Z,62.40
2018-06-12T05:13:36.686Z,61.70
2018-06-12T05:14:09.882Z,61.40
2018-06-12T05:14:42.693Z,61.40
2018-06-12T05:15:15.436Z,61.30
2018-06-12T05:15:48.155Z,61.10
2018-06-12T05:16:20.827Z,61.30
2018-06-12T05:16:53.494Z,61.30
2018-06-12T05:17:26.158Z,61.70
2018-06-12T05:17:58.821Z,60.90
2018-06-12T05:18:31.485Z,60.70
2018-06-12T05:19:04.391Z,60.10
2018-06-12T05:19:37.634Z,59.80
2018-06-12T05:20:10.471Z,60.30
2018-06-12T05:20:43.350Z,60.70
2018-06-12T05:21:16.059Z,60.60
2018-06-12T05:21:48.742Z,59.70
2018-06-12T05:22:21.470Z,59.20
2018-06-12T05:22:54.146Z,59.30
2018-06-12T05:23:26.830Z,59.40
2018-06-12T05:23:59.475Z,59.40
2018-06-12T05:24:32.126Z,59.50
2018-06-12T05:25:04.923Z,59.30
2018-06-12T05:25:38.071Z,58.80
2018-06-12T05:26:10.957Z,59.20
2018-06-12T05:26:44.764Z,59.30
2018-06-12T05:27:17.454Z,59.20
2018-06-12T05:27:50.122Z,59.80
2018-06-12T05:28:22.810Z,58.70
2018-06-12T05:28:55.739Z,58.50
2018-06-12T05:29:28.394Z,59.20
2018-06-12T05:30:01.045Z,58.70
2018-06-12T05:30:33.770Z,58.70
2018-06-12T05:31:07.134Z,58.10
2018-06-12T05:31:39.921Z,58.30
2018-06-12T05:32:12.713Z,58.20
2018-06-12T05:32:46.007Z,58.40
2018-06-12T05:33:51.298Z,58.50
2018-06-12T05:34:24.246Z,58.00
2018-06-12T05:34:56.987Z,57.30
2018-06-12T05:35:29.642Z,57.00
2018-06-12T05:36:02.335Z,57.00
2018-06-12T05:36:36.663Z,57.10
2018-06-12T05:37:10.008Z,57.20
2018-06-12T05:37:43.182Z,57.10
2018-06-12T05:38:15.947Z,57.40
2018-06-12T05:38:48.631Z,57.20
2018-06-12T05:39:21.278Z,56.60
2018-06-12T05:39:53.922Z,56.20
2018-06-12T05:40:26.578Z,56.20
2018-06-12T05:40:59.230Z,56.40
2018-06-12T05:41:31.926Z,56.60
2018-06-12T05:42:04.952Z,56.70
2018-06-12T05:42:38.286Z,57.10
2018-06-12T05:43:11.146Z,57.10
2018-06-12T05:43:43.963Z,57.10
2018-06-12T05:44:16.615Z,57.20
2018-06-12T05:44:49.267Z,57.20
2018-06-12T05:45:21.935Z,57.50
2018-06-12T05:45:54.599Z,57.90
2018-06-12T05:46:27.262Z,57.80
2018-06-12T05:47:00.042Z,58.10
2018-06-12T05:47:32.738Z,57.30
2018-06-12T05:48:06.173Z,56.40
2018-06-12T05:48:39.062Z,56.30
2018-06-12T05:49:11.853Z,56.00
2018-06-12T05:49:44.666Z,56.20
2018-06-12T05:50:17.346Z,56.20
2018-06-12T05:50:50.005Z,56.70
2018-06-12T05:51:22.662Z,56.70
2018-06-12T05:51:55.326Z,56.20
2018-06-12T05:52:28.019Z,56.70
2018-06-12T05:53:00.703Z,56.10
2018-06-12T05:53:33.358Z,57.10
2018-06-12T05:54:07.385Z,56.90
2018-06-12T05:54:40.248Z,56.10
2018-06-12T05:55:13.102Z,55.80
2018-06-12T05:55:45.889Z,56.00
2018-06-12T05:56:18.523Z,56.70
2018-06-12T05:56:51.190Z,57.20
2018-06-12T05:57:23.856Z,56.10
2018-06-12T05:57:56.563Z,55.80
2018-06-12T05:58:29.218Z,55.40
2018-06-12T05:59:01.887Z,55.20
2018-06-12T05:59:35.159Z,55.00
2018-06-12T06:00:08.202Z,54.40
2018-06-12T06:00:41.126Z,54.30
2018-06-12T06:01:13.989Z,54.50
2018-06-12T06:01:46.615Z,54.40
2018-06-12T06:02:19.474Z,53.90
2018-06-12T06:02:52.142Z,54.20
2018-06-12T06:03:24.843Z,54.20
2018-06-12T06:03:57.506Z,54.70
2018-06-12T06:04:30.177Z,54.60
2018-06-12T06:05:02.894Z,54.60
2018-06-12T06:05:35.780Z,54.60
2018-06-12T06:06:09.256Z,54.70
2018-06-12T06:06:42.016Z,55.00
2018-06-12T06:07:14.791Z,54.80
2018-06-12T06:07:47.483Z,55.00
2018-06-12T06:08:20.166Z,55.00
2018-06-12T06:08:52.859Z,54.70
2018-06-12T06:09:25.580Z,54.90
2018-06-12T06:09:58.234Z,54.60
2018-06-12T06:10:30.902Z,54.40
2018-06-12T06:11:03.595Z,54.10
2018-06-12T06:11:36.776Z,54.10
2018-06-12T06:12:09.615Z,53.70
2018-06-12T06:12:42.366Z,52.70
2018-06-12T06:13:15.124Z,53.00
2018-06-12T06:13:47.782Z,53.30
2018-06-12T06:14:20.491Z,53.30
2018-06-12T06:14:53.186Z,53.40
2018-06-12T06:15:25.875Z,53.10
2018-06-12T06:15:58.572Z,52.90
2018-06-12T06:16:31.230Z,52.90
2018-06-12T06:17:04.147Z,52.90
2018-06-12T06:17:37.060Z,53.10
2018-06-12T06:18:09.870Z,53.50
2018-06-12T06:18:42.645Z,53.50
2018-06-12T06:19:15.387Z,53.50
2018-06-12T06:19:48.074Z,53.70
2018-06-12T06:20:20.734Z,53.40
2018-06-12T06:20:53.427Z,53.10
2018-06-12T06:21:26.123Z,53.00
2018-06-12T06:21:58.798Z,53.20
2018-06-12T06:22:31.517Z,52.70
2018-06-12T06:23:04.296Z,52.50
2018-06-12T06:23:37.538Z,54.10
2018-06-12T06:24:10.436Z,54.20
2018-06-12T06:24:43.283Z,53.90
2018-06-12T06:25:16.002Z,53.30
2018-06-12T06:25:48.659Z,53.50
2018-06-12T06:26:21.331Z,53.30
2018-06-12T06:26:53.994Z,54.50
2018-06-12T06:27:26.655Z,53.90
2018-06-12T06:27:59.335Z,54.00
2018-06-12T06:28:32.034Z,53.90
2018-06-12T06:29:04.894Z,53.70
2018-06-12T06:29:38.280Z,53.60
2018-06-12T06:30:11.307Z,53.20
2018-06-12T06:30:44.267Z,53.20
2018-06-12T06:31:17.010Z,53.70
2018-06-12T06:31:49.706Z,53.30
2018-06-12T06:32:22.375Z,54.00
2018-06-12T06:32:55.047Z,53.60
2018-06-12T06:33:27.699Z,53.30
2018-06-12T06:34:00.358Z,53.50
2018-06-12T06:34:33.033Z,53.30
2018-06-12T06:35:38.714Z,54.10
2018-06-12T06:36:11.612Z,55.00
2018-06-12T06:36:44.467Z,54.80
2018-06-12T06:37:17.218Z,55.30
2018-06-12T06:37:49.930Z,55.40
2018-06-12T06:38:22.582Z,55.00
2018-06-12T06:38:55.248Z,54.90
2018-06-12T06:39:27.931Z,54.70
2018-06-12T06:40:00.622Z,55.00
2018-06-12T06:40:33.294Z,55.00
2018-06-12T06:41:06.235Z,54.40
2018-06-12T06:41:39.151Z,54.10
2018-06-12T06:42:11.982Z,54.40
2018-06-12T06:42:44.731Z,54.50
2018-06-12T06:43:17.391Z,54.90
2018-06-12T06:43:50.067Z,54.00
2018-06-12T06:44:22.792Z,54.00
2018-06-12T06:44:55.494Z,53.80
2018-06-12T06:45:28.211Z,53.70
2018-06-12T06:46:00.890Z,53.70
2018-06-12T06:46:33.575Z,53.70
2018-06-12T06:47:06.451Z,53.50
2018-06-12T06:47:39.466Z,53.20
2018-06-12T06:48:12.319Z,53.70
2018-06-12T06:48:45.039Z,53.50
2018-06-12T06:49:17.707Z,52.80
2018-06-12T06:49:50.379Z,53.90
2018-06-12T06:50:23.026Z,53.80
2018-06-12T06:50:55.758Z,53.00
2018-06-12T06:51:28.390Z,53.40
2018-06-12T06:52:01.085Z,53.70
2018-06-12T06:52:34.138Z,53.20
2018-06-12T06:53:07.057Z,53.00
2018-06-12T06:53:40.198Z,53.10
2018-06-12T06:54:13.234Z,54.10
2018-06-12T06:54:45.927Z,52.90
2018-06-12T06:55:18.606Z,53.10
2018-06-12T06:55:51.266Z,53.30
2018-06-12T06:56:23.970Z,54.10
2018-06-12T06:56:56.643Z,53.70
2018-06-12T06:57:29.290Z,53.60
2018-06-12T06:58:01.967Z,53.30
2018-06-12T06:58:35.015Z,52.70
2018-06-12T06:59:08.403Z,52.60
2018-06-12T06:59:41.709Z,52.60
2018-06-12T07:00:14.573Z,52.70
2018-06-12T07:00:47.292Z,54.10
2018-06-12T07:01:19.955Z,54.40
2018-06-12T07:01:52.618Z,53.60
2018-06-12T07:02:25.288Z,52.60
2018-06-12T07:02:57.954Z,52.50
2018-06-12T07:03:30.646Z,52.90
2018-06-12T07:04:03.323Z,52.60
2018-06-12T07:04:36.200Z,52.70
2018-06-12T07:05:08.990Z,52.50
2018-06-12T07:05:41.867Z,52.90
2018-06-12T07:06:14.676Z,52.90
2018-06-12T07:06:47.354Z,53.00
2018-06-12T07:07:20.007Z,52.90
2018-06-12T07:07:52.686Z,53.20
2018-06-12T07:08:25.383Z,53.30